sensor_id;sensor_type;location;lat;lon;timestamp;temperature;humidity
80232;DHT22;74189;42.124;24.752;2023-11-19T00:02:13;7.80;50.90
80232;DHT22;74189;42.124;24.752;2023-11-19T00:04:39;7.90;51.30
80232;DHT22;74189;42.124;24.752;2023-11-19T00:07:06;7.90;50.60
80232;DHT22;74189;42.124;24.752;2023-11-19T00:09:33;7.90;50.10
80232;DHT22;74189;42.124;24.752;2023-11-19T00:12:02;7.90;50.10
80232;DHT22;74189;42.124;24.752;2023-11-19T00:14:28;7.80;49.90
80232;DHT22;74189;42.124;24.752;2023-11-19T00:16:54;7.80;49.90
80232;DHT22;74189;42.124;24.752;2023-11-19T00:19:20;7.90;49.90
80232;DHT22;74189;42.124;24.752;2023-11-19T00:21:46;7.90;49.90
80232;DHT22;74189;42.124;24.752;2023-11-19T00:24:12;7.90;49.80
80232;DHT22;74189;42.124;24.752;2023-11-19T00:26:38;7.90;49.60
80232;DHT22;74189;42.124;24.752;2023-11-19T00:29:04;7.90;49.80
80232;DHT22;74189;42.124;24.752;2023-11-19T00:31:30;7.90;49.60
80232;DHT22;74189;42.124;24.752;2023-11-19T00:33:55;8.10;49.30
80232;DHT22;74189;42.124;24.752;2023-11-19T00:36:21;8.10;49.10
80232;DHT22;74189;42.124;24.752;2023-11-19T00:38:49;8.10;49.00
80232;DHT22;74189;42.124;24.752;2023-11-19T00:41:15;8.10;49.00
80232;DHT22;74189;42.124;24.752;2023-11-19T00:43:42;8.00;49.30
80232;DHT22;74189;42.124;24.752;2023-11-19T00:46:08;8.00;49.30
80232;DHT22;74189;42.124;24.752;2023-11-19T00:48:34;8.00;49.30
80232;DHT22;74189;42.124;24.752;2023-11-19T00:50:59;8.00;49.40
80232;DHT22;74189;42.124;24.752;2023-11-19T00:53:25;7.80;49.50
80232;DHT22;74189;42.124;24.752;2023-11-19T00:55:50;7.80;49.70
80232;DHT22;74189;42.124;24.752;2023-11-19T00:58:17;7.80;49.70
80232;DHT22;74189;42.124;24.752;2023-11-19T01:00:43;7.80;50.00
80232;DHT22;74189;42.124;24.752;2023-11-19T01:03:10;7.90;50.00
80232;DHT22;74189;42.124;24.752;2023-11-19T01:05:37;8.00;49.80
80232;DHT22;74189;42.124;24.752;2023-11-19T01:08:02;8.00;49.70
80232;DHT22;74189;42.124;24.752;2023-11-19T01:10:30;8.10;49.40
80232;DHT22;74189;42.124;24.752;2023-11-19T01:12:55;8.00;49.30
80232;DHT22;74189;42.124;24.752;2023-11-19T01:15:21;8.00;49.40
80232;DHT22;74189;42.124;24.752;2023-11-19T01:17:48;8.00;49.40
80232;DHT22;74189;42.124;24.752;2023-11-19T01:20:14;8.00;49.50
80232;DHT22;74189;42.124;24.752;2023-11-19T01:22:40;8.00;49.40
80232;DHT22;74189;42.124;24.752;2023-11-19T01:25:06;7.90;49.60
80232;DHT22;74189;42.124;24.752;2023-11-19T01:27:32;7.90;49.60
80232;DHT22;74189;42.124;24.752;2023-11-19T01:30:02;8.00;49.40
80232;DHT22;74189;42.124;24.752;2023-11-19T01:32:34;8.00;49.40
80232;DHT22;74189;42.124;24.752;2023-11-19T01:35:02;7.90;49.40
80232;DHT22;74189;42.124;24.752;2023-11-19T01:37:28;7.90;49.60
80232;DHT22;74189;42.124;24.752;2023-11-19T01:39:54;7.90;49.60
80232;DHT22;74189;42.124;24.752;2023-11-19T01:42:19;7.90;49.40
80232;DHT22;74189;42.124;24.752;2023-11-19T01:44:58;8.00;49.20
80232;DHT22;74189;42.124;24.752;2023-11-19T01:47:25;8.00;48.90
80232;DHT22;74189;42.124;24.752;2023-11-19T01:49:52;8.00;48.70
80232;DHT22;74189;42.124;24.752;2023-11-19T01:52:18;7.80;49.00
80232;DHT22;74189;42.124;24.752;2023-11-19T01:54:45;7.90;49.10
80232;DHT22;74189;42.124;24.752;2023-11-19T01:57:13;7.90;49.00
80232;DHT22;74189;42.124;24.752;2023-11-19T01:59:39;7.70;49.60
80232;DHT22;74189;42.124;24.752;2023-11-19T02:02:05;7.70;49.20
80232;DHT22;74189;42.124;24.752;2023-11-19T02:04:31;7.70;49.30
80232;DHT22;74189;42.124;24.752;2023-11-19T02:06:58;7.60;49.30
80232;DHT22;74189;42.124;24.752;2023-11-19T02:09:24;7.50;49.30
80232;DHT22;74189;42.124;24.752;2023-11-19T02:11:50;7.50;49.40
80232;DHT22;74189;42.124;24.752;2023-11-19T02:14:23;7.40;49.50
80232;DHT22;74189;42.124;24.752;2023-11-19T02:16:51;7.50;49.50
80232;DHT22;74189;42.124;24.752;2023-11-19T02:19:19;7.50;49.30
80232;DHT22;74189;42.124;24.752;2023-11-19T02:21:45;7.40;49.50
80232;DHT22;74189;42.124;24.752;2023-11-19T02:24:12;7.50;49.40
80232;DHT22;74189;42.124;24.752;2023-11-19T02:27:02;7.60;49.00
80232;DHT22;74189;42.124;24.752;2023-11-19T02:29:28;7.70;48.80
80232;DHT22;74189;42.124;24.752;2023-11-19T02:31:54;7.70;48.60
80232;DHT22;74189;42.124;24.752;2023-11-19T02:34:20;7.50;48.70
80232;DHT22;74189;42.124;24.752;2023-11-19T02:36:47;7.30;49.20
80232;DHT22;74189;42.124;24.752;2023-11-19T02:39:13;7.40;49.20
80232;DHT22;74189;42.124;24.752;2023-11-19T02:41:39;7.40;49.30
80232;DHT22;74189;42.124;24.752;2023-11-19T02:44:06;7.50;49.20
80232;DHT22;74189;42.124;24.752;2023-11-19T02:46:31;7.50;48.90
80232;DHT22;74189;42.124;24.752;2023-11-19T02:48:57;7.50;49.00
80232;DHT22;74189;42.124;24.752;2023-11-19T02:51:23;7.60;49.00
80232;DHT22;74189;42.124;24.752;2023-11-19T02:53:49;7.60;48.80
80232;DHT22;74189;42.124;24.752;2023-11-19T02:56:14;7.60;48.70
80232;DHT22;74189;42.124;24.752;2023-11-19T02:58:51;7.60;48.50
80232;DHT22;74189;42.124;24.752;2023-11-19T03:01:23;7.70;48.30
80232;DHT22;74189;42.124;24.752;2023-11-19T03:03:55;7.70;48.30
80232;DHT22;74189;42.124;24.752;2023-11-19T03:06:22;7.70;48.20
80232;DHT22;74189;42.124;24.752;2023-11-19T03:08:48;7.70;48.20
80232;DHT22;74189;42.124;24.752;2023-11-19T03:11:14;7.70;48.10
80232;DHT22;74189;42.124;24.752;2023-11-19T03:13:40;7.70;48.10
80232;DHT22;74189;42.124;24.752;2023-11-19T03:16:06;7.70;48.10
80232;DHT22;74189;42.124;24.752;2023-11-19T03:18:32;7.60;48.00
80232;DHT22;74189;42.124;24.752;2023-11-19T03:20:58;7.70;48.20
80232;DHT22;74189;42.124;24.752;2023-11-19T03:23:24;7.50;48.50
80232;DHT22;74189;42.124;24.752;2023-11-19T03:25:53;7.50;48.60
80232;DHT22;74189;42.124;24.752;2023-11-19T03:28:19;7.40;48.90
80232;DHT22;74189;42.124;24.752;2023-11-19T03:30:44;7.30;49.20
80232;DHT22;74189;42.124;24.752;2023-11-19T03:33:10;7.30;49.10
80232;DHT22;74189;42.124;24.752;2023-11-19T03:35:36;7.50;48.90
80232;DHT22;74189;42.124;24.752;2023-11-19T03:38:01;7.40;48.70
80232;DHT22;74189;42.124;24.752;2023-11-19T03:40:28;7.40;48.90
80232;DHT22;74189;42.124;24.752;2023-11-19T03:42:56;7.40;49.00
80232;DHT22;74189;42.124;24.752;2023-11-19T03:45:22;7.50;48.90
80232;DHT22;74189;42.124;24.752;2023-11-19T03:47:48;7.50;48.80
80232;DHT22;74189;42.124;24.752;2023-11-19T03:50:15;7.50;48.90
80232;DHT22;74189;42.124;24.752;2023-11-19T03:52:41;7.50;48.90
80232;DHT22;74189;42.124;24.752;2023-11-19T03:55:07;7.50;48.90
80232;DHT22;74189;42.124;24.752;2023-11-19T03:57:34;7.60;48.80
80232;DHT22;74189;42.124;24.752;2023-11-19T04:00:00;7.50;48.80
80232;DHT22;74189;42.124;24.752;2023-11-19T04:02:33;7.50;48.90
80232;DHT22;74189;42.124;24.752;2023-11-19T04:04:58;7.50;48.80
80232;DHT22;74189;42.124;24.752;2023-11-19T04:07:24;7.50;48.90
80232;DHT22;74189;42.124;24.752;2023-11-19T04:09:50;7.40;49.00
80232;DHT22;74189;42.124;24.752;2023-11-19T04:12:16;7.50;48.90
80232;DHT22;74189;42.124;24.752;2023-11-19T04:14:42;7.50;49.00
80232;DHT22;74189;42.124;24.752;2023-11-19T04:17:07;7.60;49.00
80232;DHT22;74189;42.124;24.752;2023-11-19T04:19:33;7.60;49.00
80232;DHT22;74189;42.124;24.752;2023-11-19T04:21:59;7.60;48.80
80232;DHT22;74189;42.124;24.752;2023-11-19T04:24:24;7.60;48.70
80232;DHT22;74189;42.124;24.752;2023-11-19T04:26:50;7.40;49.00
80232;DHT22;74189;42.124;24.752;2023-11-19T04:29:16;7.40;49.00
80232;DHT22;74189;42.124;24.752;2023-11-19T04:31:45;7.40;49.10
80232;DHT22;74189;42.124;24.752;2023-11-19T04:34:11;7.30;49.40
80232;DHT22;74189;42.124;24.752;2023-11-19T04:36:37;7.40;49.20
80232;DHT22;74189;42.124;24.752;2023-11-19T04:39:03;7.40;49.00
80232;DHT22;74189;42.124;24.752;2023-11-19T04:41:47;7.50;48.70
80232;DHT22;74189;42.124;24.752;2023-11-19T04:44:14;7.50;48.60
80232;DHT22;74189;42.124;24.752;2023-11-19T04:46:41;7.40;48.70
80232;DHT22;74189;42.124;24.752;2023-11-19T04:49:08;7.30;48.80
80232;DHT22;74189;42.124;24.752;2023-11-19T04:51:40;7.30;49.20
80232;DHT22;74189;42.124;24.752;2023-11-19T04:54:06;7.20;49.20
80232;DHT22;74189;42.124;24.752;2023-11-19T04:56:34;7.30;49.00
80232;DHT22;74189;42.124;24.752;2023-11-19T04:59:00;7.40;48.70
80232;DHT22;74189;42.124;24.752;2023-11-19T05:01:26;7.40;48.50
80232;DHT22;74189;42.124;24.752;2023-11-19T05:03:52;7.50;48.20
80232;DHT22;74189;42.124;24.752;2023-11-19T05:06:17;7.50;48.20
80232;DHT22;74189;42.124;24.752;2023-11-19T05:08:43;7.50;47.90
80232;DHT22;74189;42.124;24.752;2023-11-19T05:11:09;7.60;48.00
80232;DHT22;74189;42.124;24.752;2023-11-19T05:13:37;7.40;48.00
80232;DHT22;74189;42.124;24.752;2023-11-19T05:16:03;7.30;48.40
80232;DHT22;74189;42.124;24.752;2023-11-19T05:18:29;7.30;48.60
80232;DHT22;74189;42.124;24.752;2023-11-19T05:20:55;7.40;48.60
80232;DHT22;74189;42.124;24.752;2023-11-19T05:23:20;7.30;48.60
80232;DHT22;74189;42.124;24.752;2023-11-19T05:25:47;7.20;48.60
80232;DHT22;74189;42.124;24.752;2023-11-19T05:28:13;7.30;48.70
80232;DHT22;74189;42.124;24.752;2023-11-19T05:30:39;7.40;48.50
80232;DHT22;74189;42.124;24.752;2023-11-19T05:33:06;7.40;48.30
80232;DHT22;74189;42.124;24.752;2023-11-19T05:35:34;7.40;48.40
80232;DHT22;74189;42.124;24.752;2023-11-19T05:38:00;7.50;48.30
80232;DHT22;74189;42.124;24.752;2023-11-19T05:40:26;7.50;48.20
80232;DHT22;74189;42.124;24.752;2023-11-19T05:42:51;7.50;48.20
80232;DHT22;74189;42.124;24.752;2023-11-19T05:45:17;7.50;48.10
80232;DHT22;74189;42.124;24.752;2023-11-19T05:47:43;7.50;48.10
80232;DHT22;74189;42.124;24.752;2023-11-19T05:50:09;7.50;48.00
80232;DHT22;74189;42.124;24.752;2023-11-19T05:52:35;7.60;47.90
80232;DHT22;74189;42.124;24.752;2023-11-19T05:55:01;7.50;47.80
80232;DHT22;74189;42.124;24.752;2023-11-19T05:57:30;7.50;48.10
80232;DHT22;74189;42.124;24.752;2023-11-19T05:59:56;7.50;48.10
80232;DHT22;74189;42.124;24.752;2023-11-19T06:02:22;7.40;48.20
80232;DHT22;74189;42.124;24.752;2023-11-19T06:04:48;7.40;48.20
80232;DHT22;74189;42.124;24.752;2023-11-19T06:07:15;7.50;48.10
80232;DHT22;74189;42.124;24.752;2023-11-19T06:09:41;7.40;48.20
80232;DHT22;74189;42.124;24.752;2023-11-19T06:12:07;7.30;48.50
80232;DHT22;74189;42.124;24.752;2023-11-19T06:14:33;7.30;48.60
80232;DHT22;74189;42.124;24.752;2023-11-19T06:16:58;7.30;48.60
80232;DHT22;74189;42.124;24.752;2023-11-19T06:19:25;7.30;48.70
80232;DHT22;74189;42.124;24.752;2023-11-19T06:21:51;7.40;48.70
80232;DHT22;74189;42.124;24.752;2023-11-19T06:24:16;7.40;48.70
80232;DHT22;74189;42.124;24.752;2023-11-19T06:26:42;7.40;48.60
80232;DHT22;74189;42.124;24.752;2023-11-19T06:29:08;7.40;48.60
80232;DHT22;74189;42.124;24.752;2023-11-19T06:31:34;7.30;48.70
80232;DHT22;74189;42.124;24.752;2023-11-19T06:33:59;7.30;48.80
80232;DHT22;74189;42.124;24.752;2023-11-19T06:36:25;7.30;48.80
80232;DHT22;74189;42.124;24.752;2023-11-19T06:38:52;7.30;48.90
80232;DHT22;74189;42.124;24.752;2023-11-19T06:41:17;7.40;48.80
80232;DHT22;74189;42.124;24.752;2023-11-19T06:43:43;7.40;48.70
80232;DHT22;74189;42.124;24.752;2023-11-19T06:46:18;7.20;49.30
80232;DHT22;74189;42.124;24.752;2023-11-19T06:48:44;7.30;48.90
80232;DHT22;74189;42.124;24.752;2023-11-19T06:51:13;7.30;48.80
80232;DHT22;74189;42.124;24.752;2023-11-19T06:53:39;7.40;48.70
80232;DHT22;74189;42.124;24.752;2023-11-19T06:56:16;7.40;48.80
80232;DHT22;74189;42.124;24.752;2023-11-19T06:58:42;7.40;48.60
80232;DHT22;74189;42.124;24.752;2023-11-19T07:01:08;7.30;48.60
80232;DHT22;74189;42.124;24.752;2023-11-19T07:03:35;7.30;48.80
80232;DHT22;74189;42.124;24.752;2023-11-19T07:06:00;7.40;48.70
80232;DHT22;74189;42.124;24.752;2023-11-19T07:08:26;7.50;48.40
80232;DHT22;74189;42.124;24.752;2023-11-19T07:10:52;7.60;48.20
80232;DHT22;74189;42.124;24.752;2023-11-19T07:13:18;7.60;48.10
80232;DHT22;74189;42.124;24.752;2023-11-19T07:15:44;7.60;47.60
80232;DHT22;74189;42.124;24.752;2023-11-19T07:18:10;7.60;47.80
80232;DHT22;74189;42.124;24.752;2023-11-19T07:20:37;7.50;47.30
80232;DHT22;74189;42.124;24.752;2023-11-19T07:23:03;7.50;47.60
80232;DHT22;74189;42.124;24.752;2023-11-19T07:25:29;7.60;47.70
80232;DHT22;74189;42.124;24.752;2023-11-19T07:27:55;7.60;47.50
80232;DHT22;74189;42.124;24.752;2023-11-19T07:30:22;7.60;47.40
80232;DHT22;74189;42.124;24.752;2023-11-19T07:32:47;7.70;47.30
80232;DHT22;74189;42.124;24.752;2023-11-19T07:35:14;7.60;47.40
80232;DHT22;74189;42.124;24.752;2023-11-19T07:37:41;7.60;47.50
80232;DHT22;74189;42.124;24.752;2023-11-19T07:40:08;7.50;48.00
80232;DHT22;74189;42.124;24.752;2023-11-19T07:42:33;7.60;47.70
80232;DHT22;74189;42.124;24.752;2023-11-19T07:44:59;7.60;47.40
80232;DHT22;74189;42.124;24.752;2023-11-19T07:47:24;7.70;47.20
80232;DHT22;74189;42.124;24.752;2023-11-19T07:49:51;7.70;47.00
80232;DHT22;74189;42.124;24.752;2023-11-19T07:52:16;7.80;46.80
80232;DHT22;74189;42.124;24.752;2023-11-19T07:54:42;7.80;46.50
80232;DHT22;74189;42.124;24.752;2023-11-19T07:57:08;7.90;46.70
80232;DHT22;74189;42.124;24.752;2023-11-19T07:59:36;7.90;46.90
80232;DHT22;74189;42.124;24.752;2023-11-19T08:02:02;7.90;47.50
80232;DHT22;74189;42.124;24.752;2023-11-19T08:04:29;7.90;47.20
80232;DHT22;74189;42.124;24.752;2023-11-19T08:06:54;7.90;46.70
80232;DHT22;74189;42.124;24.752;2023-11-19T08:09:20;7.80;46.80
80232;DHT22;74189;42.124;24.752;2023-11-19T08:11:46;7.80;46.50
80232;DHT22;74189;42.124;24.752;2023-11-19T08:14:12;7.90;46.40
80232;DHT22;74189;42.124;24.752;2023-11-19T08:16:39;7.90;46.20
80232;DHT22;74189;42.124;24.752;2023-11-19T08:19:05;8.00;46.30
80232;DHT22;74189;42.124;24.752;2023-11-19T08:21:30;8.00;47.00
80232;DHT22;74189;42.124;24.752;2023-11-19T08:23:56;8.00;46.00
80232;DHT22;74189;42.124;24.752;2023-11-19T08:26:22;8.00;45.60
80232;DHT22;74189;42.124;24.752;2023-11-19T08:28:47;7.90;45.90
80232;DHT22;74189;42.124;24.752;2023-11-19T08:31:13;7.80;46.50
80232;DHT22;74189;42.124;24.752;2023-11-19T08:33:39;7.80;46.60
80232;DHT22;74189;42.124;24.752;2023-11-19T08:36:05;7.70;46.80
80232;DHT22;74189;42.124;24.752;2023-11-19T08:38:31;7.80;47.00
80232;DHT22;74189;42.124;24.752;2023-11-19T08:40:57;7.80;47.00
80232;DHT22;74189;42.124;24.752;2023-11-19T08:43:25;7.70;46.80
80232;DHT22;74189;42.124;24.752;2023-11-19T08:45:51;7.80;46.80
80232;DHT22;74189;42.124;24.752;2023-11-19T08:48:17;7.80;46.90
80232;DHT22;74189;42.124;24.752;2023-11-19T08:50:42;7.90;46.60
80232;DHT22;74189;42.124;24.752;2023-11-19T08:53:08;7.90;46.60
80232;DHT22;74189;42.124;24.752;2023-11-19T08:55:34;8.00;46.60
80232;DHT22;74189;42.124;24.752;2023-11-19T08:57:59;8.30;46.50
80232;DHT22;74189;42.124;24.752;2023-11-19T09:00:25;8.40;45.60
80232;DHT22;74189;42.124;24.752;2023-11-19T09:02:51;8.40;45.10
80232;DHT22;74189;42.124;24.752;2023-11-19T09:05:16;8.40;44.90
80232;DHT22;74189;42.124;24.752;2023-11-19T09:07:42;8.20;45.40
80232;DHT22;74189;42.124;24.752;2023-11-19T09:10:08;8.20;45.30
80232;DHT22;74189;42.124;24.752;2023-11-19T09:12:34;8.20;45.30
80232;DHT22;74189;42.124;24.752;2023-11-19T09:15:00;8.10;45.20
80232;DHT22;74189;42.124;24.752;2023-11-19T09:17:26;8.30;45.10
80232;DHT22;74189;42.124;24.752;2023-11-19T09:19:51;8.20;45.20
80232;DHT22;74189;42.124;24.752;2023-11-19T09:22:17;8.10;45.60
80232;DHT22;74189;42.124;24.752;2023-11-19T09:24:43;8.30;46.00
80232;DHT22;74189;42.124;24.752;2023-11-19T09:27:10;8.40;45.90
80232;DHT22;74189;42.124;24.752;2023-11-19T09:29:36;8.20;46.10
80232;DHT22;74189;42.124;24.752;2023-11-19T09:32:01;8.30;46.20
80232;DHT22;74189;42.124;24.752;2023-11-19T09:34:27;8.50;45.70
80232;DHT22;74189;42.124;24.752;2023-11-19T09:36:53;8.60;45.00
80232;DHT22;74189;42.124;24.752;2023-11-19T09:39:19;8.60;44.90
80232;DHT22;74189;42.124;24.752;2023-11-19T09:41:46;8.60;44.70
80232;DHT22;74189;42.124;24.752;2023-11-19T09:44:12;8.80;44.80
80232;DHT22;74189;42.124;24.752;2023-11-19T09:46:41;8.70;44.40
80232;DHT22;74189;42.124;24.752;2023-11-19T09:49:08;8.70;44.40
80232;DHT22;74189;42.124;24.752;2023-11-19T09:51:35;8.70;44.60
80232;DHT22;74189;42.124;24.752;2023-11-19T09:54:01;8.60;45.30
80232;DHT22;74189;42.124;24.752;2023-11-19T09:56:29;8.50;45.40
80232;DHT22;74189;42.124;24.752;2023-11-19T09:58:59;8.50;45.70
80232;DHT22;74189;42.124;24.752;2023-11-19T10:01:25;8.30;46.10
80232;DHT22;74189;42.124;24.752;2023-11-19T10:03:54;8.00;46.70
80232;DHT22;74189;42.124;24.752;2023-11-19T10:06:21;7.80;47.30
80232;DHT22;74189;42.124;24.752;2023-11-19T10:08:46;7.70;47.50
80232;DHT22;74189;42.124;24.752;2023-11-19T10:11:12;7.70;47.30
80232;DHT22;74189;42.124;24.752;2023-11-19T10:13:38;7.60;47.80
80232;DHT22;74189;42.124;24.752;2023-11-19T10:16:13;7.50;47.40
80232;DHT22;74189;42.124;24.752;2023-11-19T10:18:46;7.30;48.10
80232;DHT22;74189;42.124;24.752;2023-11-19T10:21:13;7.30;48.30
80232;DHT22;74189;42.124;24.752;2023-11-19T10:23:52;7.10;48.50
80232;DHT22;74189;42.124;24.752;2023-11-19T10:26:20;7.10;49.20
80232;DHT22;74189;42.124;24.752;2023-11-19T10:28:47;6.80;49.20
80232;DHT22;74189;42.124;24.752;2023-11-19T10:31:17;6.60;50.10
80232;DHT22;74189;42.124;24.752;2023-11-19T10:33:46;6.50;49.70
80232;DHT22;74189;42.124;24.752;2023-11-19T10:36:12;6.60;50.10
80232;DHT22;74189;42.124;24.752;2023-11-19T10:38:39;6.70;50.00
80232;DHT22;74189;42.124;24.752;2023-11-19T10:41:06;6.80;49.70
80232;DHT22;74189;42.124;24.752;2023-11-19T10:43:31;6.80;49.30
80232;DHT22;74189;42.124;24.752;2023-11-19T10:46:10;6.90;48.90
80232;DHT22;74189;42.124;24.752;2023-11-19T10:48:36;7.10;48.20
80232;DHT22;74189;42.124;24.752;2023-11-19T10:51:05;7.20;47.70
80232;DHT22;74189;42.124;24.752;2023-11-19T10:53:35;7.50;47.40
80232;DHT22;74189;42.124;24.752;2023-11-19T10:56:02;7.40;47.50
80232;DHT22;74189;42.124;24.752;2023-11-19T10:58:32;7.10;47.70
80232;DHT22;74189;42.124;24.752;2023-11-19T11:01:03;7.00;48.30
80232;DHT22;74189;42.124;24.752;2023-11-19T11:03:39;7.10;48.20
80232;DHT22;74189;42.124;24.752;2023-11-19T11:06:06;7.30;47.70
80232;DHT22;74189;42.124;24.752;2023-11-19T11:08:32;7.60;47.20
80232;DHT22;74189;42.124;24.752;2023-11-19T11:11:02;7.70;47.00
80232;DHT22;74189;42.124;24.752;2023-11-19T11:13:30;7.70;46.40
80232;DHT22;74189;42.124;24.752;2023-11-19T11:15:57;7.60;46.70
80232;DHT22;74189;42.124;24.752;2023-11-19T11:18:26;7.80;46.40
80232;DHT22;74189;42.124;24.752;2023-11-19T11:20:59;7.90;46.30
80232;DHT22;74189;42.124;24.752;2023-11-19T11:29:26;8.00;46.40
80232;DHT22;74189;42.124;24.752;2023-11-19T11:32:01;8.10;46.90
80232;DHT22;74189;42.124;24.752;2023-11-19T11:37:49;7.90;46.20
80232;DHT22;74189;42.124;24.752;2023-11-19T11:40:15;7.90;45.70
80232;DHT22;74189;42.124;24.752;2023-11-19T11:42:41;7.80;45.80
80232;DHT22;74189;42.124;24.752;2023-11-19T11:45:16;7.70;45.90
80232;DHT22;74189;42.124;24.752;2023-11-19T11:50:09;7.80;45.80
80232;DHT22;74189;42.124;24.752;2023-11-19T11:57:57;7.70;46.80
80232;DHT22;74189;42.124;24.752;2023-11-19T12:00:27;7.90;46.40
80232;DHT22;74189;42.124;24.752;2023-11-19T12:02:56;8.00;46.00
80232;DHT22;74189;42.124;24.752;2023-11-19T12:05:23;7.90;45.90
80232;DHT22;74189;42.124;24.752;2023-11-19T12:08:04;7.80;46.40
80232;DHT22;74189;42.124;24.752;2023-11-19T12:10:32;7.70;46.70
80232;DHT22;74189;42.124;24.752;2023-11-19T12:13:05;7.70;46.90
80232;DHT22;74189;42.124;24.752;2023-11-19T12:15:32;7.80;46.60
80232;DHT22;74189;42.124;24.752;2023-11-19T12:17:58;8.00;46.30
80232;DHT22;74189;42.124;24.752;2023-11-19T12:20:25;8.00;46.10
80232;DHT22;74189;42.124;24.752;2023-11-19T12:22:52;8.00;46.10
80232;DHT22;74189;42.124;24.752;2023-11-19T12:25:19;8.10;45.80
80232;DHT22;74189;42.124;24.752;2023-11-19T12:27:50;8.10;45.50
80232;DHT22;74189;42.124;24.752;2023-11-19T12:30:23;8.10;45.80
80232;DHT22;74189;42.124;24.752;2023-11-19T12:32:50;8.20;45.30
80232;DHT22;74189;42.124;24.752;2023-11-19T12:35:16;8.10;45.10
80232;DHT22;74189;42.124;24.752;2023-11-19T12:37:46;8.00;45.50
80232;DHT22;74189;42.124;24.752;2023-11-19T12:40:16;8.00;45.50
80232;DHT22;74189;42.124;24.752;2023-11-19T12:42:43;8.10;45.60
80232;DHT22;74189;42.124;24.752;2023-11-19T12:45:09;8.30;45.30
80232;DHT22;74189;42.124;24.752;2023-11-19T12:47:39;8.20;45.10
80232;DHT22;74189;42.124;24.752;2023-11-19T12:50:07;8.10;45.30
80232;DHT22;74189;42.124;24.752;2023-11-19T12:52:34;8.10;45.10
80232;DHT22;74189;42.124;24.752;2023-11-19T12:55:02;8.20;44.90
80232;DHT22;74189;42.124;24.752;2023-11-19T12:57:40;8.20;45.20
80232;DHT22;74189;42.124;24.752;2023-11-19T13:00:07;8.30;45.80
80232;DHT22;74189;42.124;24.752;2023-11-19T13:02:48;8.40;45.90
80232;DHT22;74189;42.124;24.752;2023-11-19T13:05:32;8.20;46.20
80232;DHT22;74189;42.124;24.752;2023-11-19T13:08:04;8.40;46.40
80232;DHT22;74189;42.124;24.752;2023-11-19T13:10:31;8.40;46.10
80232;DHT22;74189;42.124;24.752;2023-11-19T13:13:10;8.50;46.30
80232;DHT22;74189;42.124;24.752;2023-11-19T13:15:35;8.40;46.40
80232;DHT22;74189;42.124;24.752;2023-11-19T13:18:01;8.40;46.30
80232;DHT22;74189;42.124;24.752;2023-11-19T13:20:28;8.30;47.00
80232;DHT22;74189;42.124;24.752;2023-11-19T13:23:04;8.20;47.10
80232;DHT22;74189;42.124;24.752;2023-11-19T13:25:31;8.20;47.00
80232;DHT22;74189;42.124;24.752;2023-11-19T13:27:58;8.40;46.80
80232;DHT22;74189;42.124;24.752;2023-11-19T13:30:25;8.40;46.70
80232;DHT22;74189;42.124;24.752;2023-11-19T13:32:52;8.50;46.50
80232;DHT22;74189;42.124;24.752;2023-11-19T13:35:18;8.50;46.30
80232;DHT22;74189;42.124;24.752;2023-11-19T13:37:44;8.60;46.40
80232;DHT22;74189;42.124;24.752;2023-11-19T13:40:11;8.60;46.20
80232;DHT22;74189;42.124;24.752;2023-11-19T13:42:39;8.60;46.20
80232;DHT22;74189;42.124;24.752;2023-11-19T13:47:36;8.70;45.90
80232;DHT22;74189;42.124;24.752;2023-11-19T13:50:02;8.70;45.30
80232;DHT22;74189;42.124;24.752;2023-11-19T13:52:31;8.70;43.90
80232;DHT22;74189;42.124;24.752;2023-11-19T13:54:57;8.70;43.20
80232;DHT22;74189;42.124;24.752;2023-11-19T13:57:22;8.70;42.60
80232;DHT22;74189;42.124;24.752;2023-11-19T13:59:48;8.80;42.30
80232;DHT22;74189;42.124;24.752;2023-11-19T14:02:13;8.70;41.80
80232;DHT22;74189;42.124;24.752;2023-11-19T14:04:39;8.70;41.70
80232;DHT22;74189;42.124;24.752;2023-11-19T14:07:05;8.70;41.50
80232;DHT22;74189;42.124;24.752;2023-11-19T14:09:30;8.60;42.00
80232;DHT22;74189;42.124;24.752;2023-11-19T14:11:56;8.70;42.30
80232;DHT22;74189;42.124;24.752;2023-11-19T14:14:22;8.70;42.60
80232;DHT22;74189;42.124;24.752;2023-11-19T14:16:48;8.70;42.20
80232;DHT22;74189;42.124;24.752;2023-11-19T14:19:13;8.70;42.30
80232;DHT22;74189;42.124;24.752;2023-11-19T14:21:40;8.70;42.30
80232;DHT22;74189;42.124;24.752;2023-11-19T14:24:05;8.70;42.40
80232;DHT22;74189;42.124;24.752;2023-11-19T14:26:31;8.80;42.30
80232;DHT22;74189;42.124;24.752;2023-11-19T14:28:57;8.80;42.10
80232;DHT22;74189;42.124;24.752;2023-11-19T14:31:22;8.90;42.10
80232;DHT22;74189;42.124;24.752;2023-11-19T14:33:48;8.90;42.00
80232;DHT22;74189;42.124;24.752;2023-11-19T14:36:14;8.90;42.00
80232;DHT22;74189;42.124;24.752;2023-11-19T14:38:41;8.90;42.30
80232;DHT22;74189;42.124;24.752;2023-11-19T14:41:06;9.00;42.20
80232;DHT22;74189;42.124;24.752;2023-11-19T14:43:33;9.00;43.30
80232;DHT22;74189;42.124;24.752;2023-11-19T14:45:58;9.00;42.10
80232;DHT22;74189;42.124;24.752;2023-11-19T14:48:24;9.00;42.40
80232;DHT22;74189;42.124;24.752;2023-11-19T14:50:49;9.00;42.70
80232;DHT22;74189;42.124;24.752;2023-11-19T14:53:15;9.00;43.10
80232;DHT22;74189;42.124;24.752;2023-11-19T14:55:41;9.00;43.30
80232;DHT22;74189;42.124;24.752;2023-11-19T14:58:06;8.90;43.60
80232;DHT22;74189;42.124;24.752;2023-11-19T15:00:33;8.90;43.90
80232;DHT22;74189;42.124;24.752;2023-11-19T15:02:59;8.90;44.00
80232;DHT22;74189;42.124;24.752;2023-11-19T15:05:24;8.90;44.10
80232;DHT22;74189;42.124;24.752;2023-11-19T15:07:50;8.80;44.40
80232;DHT22;74189;42.124;24.752;2023-11-19T15:10:16;8.80;44.40
80232;DHT22;74189;42.124;24.752;2023-11-19T15:12:41;8.70;44.50
80232;DHT22;74189;42.124;24.752;2023-11-19T15:15:08;8.80;44.60
80232;DHT22;74189;42.124;24.752;2023-11-19T15:17:35;8.70;44.40
80232;DHT22;74189;42.124;24.752;2023-11-19T15:20:02;8.70;44.60
80232;DHT22;74189;42.124;24.752;2023-11-19T15:22:28;8.60;44.90
80232;DHT22;74189;42.124;24.752;2023-11-19T15:24:54;8.60;45.00
80232;DHT22;74189;42.124;24.752;2023-11-19T15:27:19;8.60;45.10
80232;DHT22;74189;42.124;24.752;2023-11-19T15:29:45;8.50;45.10
80232;DHT22;74189;42.124;24.752;2023-11-19T15:32:11;8.50;45.10
80232;DHT22;74189;42.124;24.752;2023-11-19T15:34:36;8.40;45.30
80232;DHT22;74189;42.124;24.752;2023-11-19T15:37:03;8.40;45.50
80232;DHT22;74189;42.124;24.752;2023-11-19T15:39:29;8.40;45.50
80232;DHT22;74189;42.124;24.752;2023-11-19T15:41:55;8.30;45.80
80232;DHT22;74189;42.124;24.752;2023-11-19T15:44:23;8.20;46.10
80232;DHT22;74189;42.124;24.752;2023-11-19T15:46:49;8.20;46.40
80232;DHT22;74189;42.124;24.752;2023-11-19T15:49:15;8.10;46.60